sensor_id;sensor_type;location;lat;lon;timestamp;P1;durP1;ratioP1;P2;durP2;ratioP2
15929;SDS011;8064;51.142;4.780;2023-02-08T00:00:31;16.13;;;10.50;;
15929;SDS011;8064;51.142;4.780;2023-02-08T00:02:57;13.63;;;9.80;;
15929;SDS011;8064;51.142;4.780;2023-02-08T00:05:23;17.90;;;10.27;;
15929;SDS011;8064;51.142;4.780;2023-02-08T00:07:49;16.37;;;10.43;;
15929;SDS011;8064;51.142;4.780;2023-02-08T00:10:14;16.40;;;10.50;;
15929;SDS011;8064;51.142;4.780;2023-02-08T00:12:40;13.60;;;9.90;;
15929;SDS011;8064;51.142;4.780;2023-02-08T00:15:06;12.77;;;9.70;;
15929;SDS011;8064;51.142;4.780;2023-02-08T00:17:32;15.03;;;10.67;;
15929;SDS011;8064;51.142;4.780;2023-02-08T00:19:57;17.10;;;10.90;;
15929;SDS011;8064;51.142;4.780;2023-02-08T00:22:23;14.73;;;9.87;;
15929;SDS011;8064;51.142;4.780;2023-02-08T00:24:49;13.67;;;10.00;;
15929;SDS011;8064;51.142;4.780;2023-02-08T00:27:15;14.93;;;10.33;;
15929;SDS011;8064;51.142;4.780;2023-02-08T00:29:42;16.70;;;9.73;;
15929;SDS011;8064;51.142;4.780;2023-02-08T00:32:08;13.03;;;9.53;;
15929;SDS011;8064;51.142;4.780;2023-02-08T00:34:35;16.43;;;9.53;;
15929;SDS011;8064;51.142;4.780;2023-02-08T00:37:01;14.10;;;9.33;;
15929;SDS011;8064;51.142;4.780;2023-02-08T00:39:27;14.53;;;9.17;;
15929;SDS011;8064;51.142;4.780;2023-02-08T00:41:52;16.77;;;10.33;;
15929;SDS011;8064;51.142;4.780;2023-02-08T00:44:18;18.90;;;9.57;;
15929;SDS011;8064;51.142;4.780;2023-02-08T00:46:44;19.27;;;11.23;;
15929;SDS011;8064;51.142;4.780;2023-02-08T00:49:10;13.27;;;9.87;;
15929;SDS011;8064;51.142;4.780;2023-02-08T00:51:35;15.87;;;10.73;;
15929;SDS011;8064;51.142;4.780;2023-02-08T00:54:01;16.10;;;11.07;;
15929;SDS011;8064;51.142;4.780;2023-02-08T00:56:27;15.23;;;10.97;;
15929;SDS011;8064;51.142;4.780;2023-02-08T00:58:53;14.87;;;10.63;;
15929;SDS011;8064;51.142;4.780;2023-02-08T01:01:19;15.67;;;10.80;;
15929;SDS011;8064;51.142;4.780;2023-02-08T01:03:44;19.77;;;11.50;;
15929;SDS011;8064;51.142;4.780;2023-02-08T01:06:13;16.67;;;10.90;;
15929;SDS011;8064;51.142;4.780;2023-02-08T01:08:40;15.47;;;11.03;;
15929;SDS011;8064;51.142;4.780;2023-02-08T01:11:07;15.33;;;10.77;;
15929;SDS011;8064;51.142;4.780;2023-02-08T01:13:37;17.27;;;11.10;;
15929;SDS011;8064;51.142;4.780;2023-02-08T01:16:05;16.30;;;11.53;;
15929;SDS011;8064;51.142;4.780;2023-02-08T01:18:32;15.97;;;11.70;;
15929;SDS011;8064;51.142;4.780;2023-02-08T01:21:13;14.63;;;10.43;;
15929;SDS011;8064;51.142;4.780;2023-02-08T01:23:41;16.23;;;11.00;;
15929;SDS011;8064;51.142;4.780;2023-02-08T01:26:08;17.13;;;10.77;;
15929;SDS011;8064;51.142;4.780;2023-02-08T01:28:35;16.10;;;10.30;;
15929;SDS011;8064;51.142;4.780;2023-02-08T01:33:48;18.30;;;11.40;;
15929;SDS011;8064;51.142;4.780;2023-02-08T01:36:14;16.60;;;10.70;;
15929;SDS011;8064;51.142;4.780;2023-02-08T01:38:41;16.37;;;10.97;;
15929;SDS011;8064;51.142;4.780;2023-02-08T01:41:10;16.00;;;10.50;;
15929;SDS011;8064;51.142;4.780;2023-02-08T01:46:42;16.00;;;10.93;;
15929;SDS011;8064;51.142;4.780;2023-02-08T01:51:43;15.20;;;10.13;;
15929;SDS011;8064;51.142;4.780;2023-02-08T01:54:12;13.27;;;9.80;;
15929;SDS011;8064;51.142;4.780;2023-02-08T01:56:42;15.30;;;9.87;;
15929;SDS011;8064;51.142;4.780;2023-02-08T01:59:12;14.37;;;9.80;;
15929;SDS011;8064;51.142;4.780;2023-02-08T02:01:42;14.20;;;10.40;;
15929;SDS011;8064;51.142;4.780;2023-02-08T02:04:10;14.87;;;10.47;;
15929;SDS011;8064;51.142;4.780;2023-02-08T02:06:39;15.83;;;10.63;;
15929;SDS011;8064;51.142;4.780;2023-02-08T02:11:38;13.50;;;9.47;;
15929;SDS011;8064;51.142;4.780;2023-02-08T02:14:04;17.33;;;10.33;;
15929;SDS011;8064;51.142;4.780;2023-02-08T02:16:30;13.77;;;9.37;;
15929;SDS011;8064;51.142;4.780;2023-02-08T02:18:56;16.10;;;10.60;;
15929;SDS011;8064;51.142;4.780;2023-02-08T02:30:10;12.33;;;8.53;;
15929;SDS011;8064;51.142;4.780;2023-02-08T02:35:55;13.43;;;9.47;;
15929;SDS011;8064;51.142;4.780;2023-02-08T02:38:40;14.87;;;9.73;;
15929;SDS011;8064;51.142;4.780;2023-02-08T02:44:23;13.63;;;9.17;;
15929;SDS011;8064;51.142;4.780;2023-02-08T02:47:11;14.13;;;9.10;;
15929;SDS011;8064;51.142;4.780;2023-02-08T02:49:47;14.23;;;8.90;;
15929;SDS011;8064;51.142;4.780;2023-02-08T02:52:35;13.40;;;9.23;;
15929;SDS011;8064;51.142;4.780;2023-02-08T02:55:21;16.43;;;10.33;;
15929;SDS011;8064;51.142;4.780;2023-02-08T02:57:50;14.43;;;10.03;;
15929;SDS011;8064;51.142;4.780;2023-02-08T03:00:21;15.43;;;10.07;;
15929;SDS011;8064;51.142;4.780;2023-02-08T03:02:48;18.30;;;10.93;;
15929;SDS011;8064;51.142;4.780;2023-02-08T03:05:14;16.83;;;10.80;;
15929;SDS011;8064;51.142;4.780;2023-02-08T03:27:15;15.30;;;9.93;;
15929;SDS011;8064;51.142;4.780;2023-02-08T03:32:47;14.90;;;9.90;;
15929;SDS011;8064;51.142;4.780;2023-02-08T03:35:22;17.20;;;10.50;;
15929;SDS011;8064;51.142;4.780;2023-02-08T03:37:54;16.10;;;10.50;;
15929;SDS011;8064;51.142;4.780;2023-02-08T03:43:12;14.93;;;10.23;;
15929;SDS011;8064;51.142;4.780;2023-02-08T03:45:44;18.60;;;10.73;;
15929;SDS011;8064;51.142;4.780;2023-02-08T03:48:12;16.70;;;10.90;;
15929;SDS011;8064;51.142;4.780;2023-02-08T03:50:43;16.33;;;11.00;;
15929;SDS011;8064;51.142;4.780;2023-02-08T03:53:13;18.43;;;11.53;;
15929;SDS011;8064;51.142;4.780;2023-02-08T03:55:44;19.17;;;11.77;;
15929;SDS011;8064;51.142;4.780;2023-02-08T04:01:02;15.97;;;11.13;;
15929;SDS011;8064;51.142;4.780;2023-02-08T04:03:33;17.27;;;11.37;;
15929;SDS011;8064;51.142;4.780;2023-02-08T04:06:00;22.73;;;11.63;;
15929;SDS011;8064;51.142;4.780;2023-02-08T04:08:26;17.43;;;11.07;;
15929;SDS011;8064;51.142;4.780;2023-02-08T04:10:52;17.23;;;10.90;;
15929;SDS011;8064;51.142;4.780;2023-02-08T04:13:18;14.73;;;9.63;;
15929;SDS011;8064;51.142;4.780;2023-02-08T04:15:43;16.33;;;10.67;;
15929;SDS011;8064;51.142;4.780;2023-02-08T04:18:09;14.73;;;10.40;;
15929;SDS011;8064;51.142;4.780;2023-02-08T04:20:35;16.83;;;10.47;;
15929;SDS011;8064;51.142;4.780;2023-02-08T04:23:00;15.10;;;9.90;;
15929;SDS011;8064;51.142;4.780;2023-02-08T04:25:26;16.27;;;10.40;;
15929;SDS011;8064;51.142;4.780;2023-02-08T04:27:52;15.57;;;10.57;;
15929;SDS011;8064;51.142;4.780;2023-02-08T04:30:18;15.80;;;10.13;;
15929;SDS011;8064;51.142;4.780;2023-02-08T04:32:44;15.90;;;10.50;;
15929;SDS011;8064;51.142;4.780;2023-02-08T04:35:10;14.50;;;9.83;;
15929;SDS011;8064;51.142;4.780;2023-02-08T04:37:35;13.67;;;10.13;;
15929;SDS011;8064;51.142;4.780;2023-02-08T04:40:01;16.67;;;10.73;;
15929;SDS011;8064;51.142;4.780;2023-02-08T04:42:27;14.70;;;10.00;;
15929;SDS011;8064;51.142;4.780;2023-02-08T04:44:54;16.57;;;10.83;;
15929;SDS011;8064;51.142;4.780;2023-02-08T04:47:20;18.57;;;11.60;;
15929;SDS011;8064;51.142;4.780;2023-02-08T04:49:46;20.80;;;11.93;;
15929;SDS011;8064;51.142;4.780;2023-02-08T04:52:12;18.20;;;10.87;;
15929;SDS011;8064;51.142;4.780;2023-02-08T04:54:38;18.90;;;11.00;;
15929;SDS011;8064;51.142;4.780;2023-02-08T04:57:04;17.20;;;11.53;;
15929;SDS011;8064;51.142;4.780;2023-02-08T04:59:29;17.60;;;9.83;;
15929;SDS011;8064;51.142;4.780;2023-02-08T05:01:55;15.40;;;10.57;;
15929;SDS011;8064;51.142;4.780;2023-02-08T05:04:21;21.87;;;11.03;;
15929;SDS011;8064;51.142;4.780;2023-02-08T05:06:46;15.13;;;10.90;;
15929;SDS011;8064;51.142;4.780;2023-02-08T05:09:12;14.43;;;10.23;;
15929;SDS011;8064;51.142;4.780;2023-02-08T05:11:38;18.17;;;10.97;;
15929;SDS011;8064;51.142;4.780;2023-02-08T05:14:04;15.90;;;10.33;;
15929;SDS011;8064;51.142;4.780;2023-02-08T05:16:30;16.47;;;10.67;;
15929;SDS011;8064;51.142;4.780;2023-02-08T05:18:56;14.00;;;10.17;;
15929;SDS011;8064;51.142;4.780;2023-02-08T05:21:22;16.67;;;10.33;;
15929;SDS011;8064;51.142;4.780;2023-02-08T05:23:48;22.87;;;11.83;;
15929;SDS011;8064;51.142;4.780;2023-02-08T05:26:15;17.10;;;11.33;;
15929;SDS011;8064;51.142;4.780;2023-02-08T05:28:41;15.30;;;10.60;;
15929;SDS011;8064;51.142;4.780;2023-02-08T05:31:09;17.13;;;11.43;;
15929;SDS011;8064;51.142;4.780;2023-02-08T05:33:51;18.90;;;11.53;;
15929;SDS011;8064;51.142;4.780;2023-02-08T05:36:17;15.83;;;10.77;;
15929;SDS011;8064;51.142;4.780;2023-02-08T05:38:44;15.10;;;10.23;;
15929;SDS011;8064;51.142;4.780;2023-02-08T05:41:09;17.50;;;11.03;;
15929;SDS011;8064;51.142;4.780;2023-02-08T05:43:35;17.87;;;10.73;;
15929;SDS011;8064;51.142;4.780;2023-02-08T05:46:01;17.67;;;10.77;;
15929;SDS011;8064;51.142;4.780;2023-02-08T05:48:27;17.80;;;11.47;;
15929;SDS011;8064;51.142;4.780;2023-02-08T05:50:54;15.23;;;10.90;;
15929;SDS011;8064;51.142;4.780;2023-02-08T05:53:20;18.03;;;10.40;;
15929;SDS011;8064;51.142;4.780;2023-02-08T05:55:46;17.77;;;10.57;;
15929;SDS011;8064;51.142;4.780;2023-02-08T05:58:13;15.13;;;10.20;;
15929;SDS011;8064;51.142;4.780;2023-02-08T06:00:40;14.77;;;10.17;;
15929;SDS011;8064;51.142;4.780;2023-02-08T06:03:06;18.30;;;10.67;;
15929;SDS011;8064;51.142;4.780;2023-02-08T06:05:32;18.50;;;12.17;;
15929;SDS011;8064;51.142;4.780;2023-02-08T06:07:58;32.47;;;19.60;;
15929;SDS011;8064;51.142;4.780;2023-02-08T06:10:24;16.73;;;10.63;;
15929;SDS011;8064;51.142;4.780;2023-02-08T06:12:50;18.10;;;11.20;;
15929;SDS011;8064;51.142;4.780;2023-02-08T06:15:16;22.50;;;12.20;;
15929;SDS011;8064;51.142;4.780;2023-02-08T06:17:41;16.60;;;10.83;;
15929;SDS011;8064;51.142;4.780;2023-02-08T06:20:07;13.50;;;10.00;;
15929;SDS011;8064;51.142;4.780;2023-02-08T06:22:34;20.93;;;10.73;;
15929;SDS011;8064;51.142;4.780;2023-02-08T06:25:00;19.30;;;10.97;;
15929;SDS011;8064;51.142;4.780;2023-02-08T06:27:26;17.33;;;10.27;;
15929;SDS011;8064;51.142;4.780;2023-02-08T06:29:51;17.10;;;10.67;;
15929;SDS011;8064;51.142;4.780;2023-02-08T06:32:17;17.57;;;11.03;;
15929;SDS011;8064;51.142;4.780;2023-02-08T06:34:43;14.97;;;10.23;;
15929;SDS011;8064;51.142;4.780;2023-02-08T06:37:09;17.80;;;10.93;;
15929;SDS011;8064;51.142;4.780;2023-02-08T06:39:35;17.00;;;11.40;;
15929;SDS011;8064;51.142;4.780;2023-02-08T06:42:00;16.53;;;10.03;;
15929;SDS011;8064;51.142;4.780;2023-02-08T06:44:26;15.90;;;10.70;;
15929;SDS011;8064;51.142;4.780;2023-02-08T06:46:52;16.43;;;10.50;;
15929;SDS011;8064;51.142;4.780;2023-02-08T06:49:18;17.83;;;11.23;;
15929;SDS011;8064;51.142;4.780;2023-02-08T06:51:44;20.53;;;11.37;;
15929;SDS011;8064;51.142;4.780;2023-02-08T06:54:09;15.17;;;9.43;;
15929;SDS011;8064;51.142;4.780;2023-02-08T06:56:35;16.43;;;10.67;;
15929;SDS011;8064;51.142;4.780;2023-02-08T06:59:01;17.13;;;9.97;;
15929;SDS011;8064;51.142;4.780;2023-02-08T07:01:27;15.30;;;10.77;;
15929;SDS011;8064;51.142;4.780;2023-02-08T07:03:53;16.47;;;10.60;;
15929;SDS011;8064;51.142;4.780;2023-02-08T07:06:19;21.23;;;11.17;;
15929;SDS011;8064;51.142;4.780;2023-02-08T07:08:45;16.87;;;11.13;;
15929;SDS011;8064;51.142;4.780;2023-02-08T07:11:13;14.03;;;9.80;;
15929;SDS011;8064;51.142;4.780;2023-02-08T07:13:42;15.33;;;9.97;;
15929;SDS011;8064;51.142;4.780;2023-02-08T07:16:11;17.57;;;10.60;;
15929;SDS011;8064;51.142;4.780;2023-02-08T07:18:37;16.53;;;11.00;;
15929;SDS011;8064;51.142;4.780;2023-02-08T07:21:03;21.97;;;11.80;;
15929;SDS011;8064;51.142;4.780;2023-02-08T07:23:29;21.10;;;10.77;;
15929;SDS011;8064;51.142;4.780;2023-02-08T07:25:56;18.60;;;10.17;;
15929;SDS011;8064;51.142;4.780;2023-02-08T07:28:24;18.03;;;10.40;;
15929;SDS011;8064;51.142;4.780;2023-02-08T07:30:53;16.37;;;10.33;;
15929;SDS011;8064;51.142;4.780;2023-02-08T07:33:22;13.63;;;9.73;;
15929;SDS011;8064;51.142;4.780;2023-02-08T07:35:49;18.70;;;11.30;;
15929;SDS011;8064;51.142;4.780;2023-02-08T07:38:15;16.87;;;10.77;;
15929;SDS011;8064;51.142;4.780;2023-02-08T07:40:42;16.53;;;9.97;;
15929;SDS011;8064;51.142;4.780;2023-02-08T07:43:09;15.70;;;11.23;;
15929;SDS011;8064;51.142;4.780;2023-02-08T07:45:36;16.40;;;10.63;;
15929;SDS011;8064;51.142;4.780;2023-02-08T07:48:02;18.03;;;10.47;;
15929;SDS011;8064;51.142;4.780;2023-02-08T07:50:28;19.53;;;11.70;;
15929;SDS011;8064;51.142;4.780;2023-02-08T07:52:54;16.00;;;10.67;;
15929;SDS011;8064;51.142;4.780;2023-02-08T07:55:20;17.97;;;10.60;;
15929;SDS011;8064;51.142;4.780;2023-02-08T07:57:46;18.83;;;10.17;;
15929;SDS011;8064;51.142;4.780;2023-02-08T08:00:13;19.07;;;10.70;;
15929;SDS011;8064;51.142;4.780;2023-02-08T08:02:41;15.50;;;10.37;;
15929;SDS011;8064;51.142;4.780;2023-02-08T08:05:08;19.23;;;10.67;;
15929;SDS011;8064;51.142;4.780;2023-02-08T08:07:35;16.67;;;10.70;;
15929;SDS011;8064;51.142;4.780;2023-02-08T08:10:01;17.83;;;10.97;;
15929;SDS011;8064;51.142;4.780;2023-02-08T08:12:27;17.60;;;10.37;;
15929;SDS011;8064;51.142;4.780;2023-02-08T08:14:53;15.60;;;10.37;;
15929;SDS011;8064;51.142;4.780;2023-02-08T08:17:19;14.07;;;10.10;;
15929;SDS011;8064;51.142;4.780;2023-02-08T08:19:45;13.93;;;10.33;;
15929;SDS011;8064;51.142;4.780;2023-02-08T08:24:55;15.37;;;9.87;;
15929;SDS011;8064;51.142;4.780;2023-02-08T08:27:22;14.27;;;10.37;;
15929;SDS011;8064;51.142;4.780;2023-02-08T08:29:48;16.30;;;10.67;;
15929;SDS011;8064;51.142;4.780;2023-02-08T08:32:14;14.90;;;9.83;;
15929;SDS011;8064;51.142;4.780;2023-02-08T08:34:40;15.33;;;10.50;;
15929;SDS011;8064;51.142;4.780;2023-02-08T08:37:05;18.27;;;10.30;;
15929;SDS011;8064;51.142;4.780;2023-02-08T08:39:31;15.37;;;10.07;;
15929;SDS011;8064;51.142;4.780;2023-02-08T08:41:58;15.77;;;10.03;;
15929;SDS011;8064;51.142;4.780;2023-02-08T08:44:24;20.03;;;11.37;;
15929;SDS011;8064;51.142;4.780;2023-02-08T08:46:53;17.37;;;10.93;;
15929;SDS011;8064;51.142;4.780;2023-02-08T08:49:20;14.93;;;9.83;;
15929;SDS011;8064;51.142;4.780;2023-02-08T08:51:47;14.33;;;9.87;;
15929;SDS011;8064;51.142;4.780;2023-02-08T08:54:13;15.77;;;9.93;;
15929;SDS011;8064;51.142;4.780;2023-02-08T08:56:38;14.83;;;10.20;;
15929;SDS011;8064;51.142;4.780;2023-02-08T08:59:04;15.63;;;10.77;;
15929;SDS011;8064;51.142;4.780;2023-02-08T09:01:30;13.43;;;10.60;;
15929;SDS011;8064;51.142;4.780;2023-02-08T09:03:56;15.67;;;10.67;;
15929;SDS011;8064;51.142;4.780;2023-02-08T09:06:21;17.10;;;10.33;;
15929;SDS011;8064;51.142;4.780;2023-02-08T09:08:47;16.10;;;9.97;;
15929;SDS011;8064;51.142;4.780;2023-02-08T09:11:14;17.53;;;10.70;;
15929;SDS011;8064;51.142;4.780;2023-02-08T09:13:40;15.70;;;10.43;;
15929;SDS011;8064;51.142;4.780;2023-02-08T09:16:07;18.40;;;11.37;;
15929;SDS011;8064;51.142;4.780;2023-02-08T09:18:36;15.87;;;10.27;;
15929;SDS011;8064;51.142;4.780;2023-02-08T09:21:05;12.47;;;9.27;;
15929;SDS011;8064;51.142;4.780;2023-02-08T09:23:33;14.97;;;10.50;;
15929;SDS011;8064;51.142;4.780;2023-02-08T09:26:01;15.77;;;9.90;;
15929;SDS011;8064;51.142;4.780;2023-02-08T09:28:27;17.40;;;10.00;;
15929;SDS011;8064;51.142;4.780;2023-02-08T09:30:53;13.20;;;9.83;;
15929;SDS011;8064;51.142;4.780;2023-02-08T09:33:19;13.37;;;9.10;;
15929;SDS011;8064;51.142;4.780;2023-02-08T09:35:45;12.53;;;9.80;;
15929;SDS011;8064;51.142;4.780;2023-02-08T09:38:10;13.70;;;9.47;;
15929;SDS011;8064;51.142;4.780;2023-02-08T09:40:43;12.23;;;9.73;;
15929;SDS011;8064;51.142;4.780;2023-02-08T09:48:52;13.93;;;10.47;;
15929;SDS011;8064;51.142;4.780;2023-02-08T09:51:26;12.37;;;9.90;;
15929;SDS011;8064;51.142;4.780;2023-02-08T09:56:54;10.57;;;9.07;;
15929;SDS011;8064;51.142;4.780;2023-02-08T09:59:24;14.77;;;9.53;;
15929;SDS011;8064;51.142;4.780;2023-02-08T10:01:53;12.47;;;10.10;;
15929;SDS011;8064;51.142;4.780;2023-02-08T10:07:19;13.77;;;9.77;;
15929;SDS011;8064;51.142;4.780;2023-02-08T10:09:44;14.10;;;10.40;;
15929;SDS011;8064;51.142;4.780;2023-02-08T10:15:19;11.30;;;9.97;;
15929;SDS011;8064;51.142;4.780;2023-02-08T10:23:55;10.95;;;9.93;;
15929;SDS011;8064;51.142;4.780;2023-02-08T10:32:05;10.52;;;9.52;;
15929;SDS011;8064;51.142;4.780;2023-02-08T10:37:37;10.93;;;9.10;;
15929;SDS011;8064;51.142;4.780;2023-02-08T10:42:51;10.55;;;9.45;;
15929;SDS011;8064;51.142;4.780;2023-02-08T10:45:26;10.38;;;8.65;;
15929;SDS011;8064;51.142;4.780;2023-02-08T10:47:59;9.23;;;8.30;;
15929;SDS011;8064;51.142;4.780;2023-02-08T10:53:15;9.73;;;8.82;;
15929;SDS011;8064;51.142;4.780;2023-02-08T10:55:43;9.48;;;8.60;;
15929;SDS011;8064;51.142;4.780;2023-02-08T10:58:13;9.27;;;8.38;;
15929;SDS011;8064;51.142;4.780;2023-02-08T11:00:42;9.52;;;8.52;;
15929;SDS011;8064;51.142;4.780;2023-02-08T11:05:53;9.43;;;7.85;;
15929;SDS011;8064;51.142;4.780;2023-02-08T11:08:21;8.65;;;7.57;;
15929;SDS011;8064;51.142;4.780;2023-02-08T11:13:35;8.57;;;7.78;;
15929;SDS011;8064;51.142;4.780;2023-02-08T11:16:05;9.63;;;8.63;;
15929;SDS011;8064;51.142;4.780;2023-02-08T11:18:35;9.48;;;8.60;;
15929;SDS011;8064;51.142;4.780;2023-02-08T11:21:06;9.82;;;8.82;;
15929;SDS011;8064;51.142;4.780;2023-02-08T11:23:37;9.68;;;8.75;;
15929;SDS011;8064;51.142;4.780;2023-02-08T11:34:25;7.82;;;7.13;;
15929;SDS011;8064;51.142;4.780;2023-02-08T11:36:54;7.93;;;7.20;;
15929;SDS011;8064;51.142;4.780;2023-02-08T11:42:04;7.50;;;6.90;;
15929;SDS011;8064;51.142;4.780;2023-02-08T11:44:32;8.27;;;6.95;;
15929;SDS011;8064;51.142;4.780;2023-02-08T11:47:02;7.47;;;6.85;;
15929;SDS011;8064;51.142;4.780;2023-02-08T11:52:18;8.32;;;6.97;;
15929;SDS011;8064;51.142;4.780;2023-02-08T11:54:49;7.55;;;6.75;;
15929;SDS011;8064;51.142;4.780;2023-02-08T11:57:18;7.63;;;6.90;;
15929;SDS011;8064;51.142;4.780;2023-02-08T11:59:46;7.85;;;7.15;;
15929;SDS011;8064;51.142;4.780;2023-02-08T12:05:00;9.35;;;7.13;;
15929;SDS011;8064;51.142;4.780;2023-02-08T12:21:43;6.63;;;5.72;;
15929;SDS011;8064;51.142;4.780;2023-02-08T12:24:15;8.85;;;5.70;;
15929;SDS011;8064;51.142;4.780;2023-02-08T12:29:55;5.88;;;5.38;;
15929;SDS011;8064;51.142;4.780;2023-02-08T12:32:40;6.55;;;5.95;;
15929;SDS011;8064;51.142;4.780;2023-02-08T12:44:17;3.92;;;3.63;;
15929;SDS011;8064;51.142;4.780;2023-02-08T12:52:44;4.55;;;3.80;;
15929;SDS011;8064;51.142;4.780;2023-02-08T12:55:17;3.95;;;3.65;;
15929;SDS011;8064;51.142;4.780;2023-02-08T12:57:58;4.20;;;3.67;;
15929;SDS011;8064;51.142;4.780;2023-02-08T13:00:39;3.35;;;3.05;;
15929;SDS011;8064;51.142;4.780;2023-02-08T13:05:45;5.07;;;3.53;;
15929;SDS011;8064;51.142;4.780;2023-02-08T13:11:00;3.97;;;2.90;;
15929;SDS011;8064;51.142;4.780;2023-02-08T13:13:33;4.07;;;3.30;;
15929;SDS011;8064;51.142;4.780;2023-02-08T13:16:02;3.25;;;2.95;;
15929;SDS011;8064;51.142;4.780;2023-02-08T13:18:36;2.70;;;2.50;;
15929;SDS011;8064;51.142;4.780;2023-02-08T13:21:23;3.47;;;2.60;;
15929;SDS011;8064;51.142;4.780;2023-02-08T13:23:54;3.80;;;3.00;;
15929;SDS011;8064;51.142;4.780;2023-02-08T13:26:24;4.50;;;3.10;;
15929;SDS011;8064;51.142;4.780;2023-02-08T13:28:54;4.20;;;3.03;;
15929;SDS011;8064;51.142;4.780;2023-02-08T13:36:34;5.20;;;3.17;;
15929;SDS011;8064;51.142;4.780;2023-02-08T13:39:02;4.57;;;3.00;;
15929;SDS011;8064;51.142;4.780;2023-02-08T13:41:31;2.73;;;2.50;;
15929;SDS011;8064;51.142;4.780;2023-02-08T13:46:57;5.67;;;2.70;;
15929;SDS011;8064;51.142;4.780;2023-02-08T13:57:58;5.03;;;2.73;;
15929;SDS011;8064;51.142;4.780;2023-02-08T14:00:27;2.97;;;2.67;;
15929;SDS011;8064;51.142;4.780;2023-02-08T14:08:28;4.90;;;2.73;;
15929;SDS011;8064;51.142;4.780;2023-02-08T14:13:53;3.83;;;2.63;;
15929;SDS011;8064;51.142;4.780;2023-02-08T14:19:19;4.60;;;2.63;;
15929;SDS011;8064;51.142;4.780;2023-02-08T14:22:20;3.33;;;2.30;;
15929;SDS011;8064;51.142;4.780;2023-02-08T14:24:36;10.47;;;2.60;;
15929;SDS011;8064;51.142;4.780;2023-02-08T14:27:10;4.77;;;2.23;;
15929;SDS011;8064;51.142;4.780;2023-02-08T14:29:53;2.40;;;1.80;;
15929;SDS011;8064;51.142;4.780;2023-02-08T14:32:47;3.30;;;2.00;;
15929;SDS011;8064;51.142;4.780;2023-02-08T14:35:18;3.47;;;2.43;;
15929;SDS011;8064;51.142;4.780;2023-02-08T14:37:48;5.40;;;2.20;;
15929;SDS011;8064;51.142;4.780;2023-02-08T14:49:08;3.27;;;2.00;;
15929;SDS011;8064;51.142;4.780;2023-02-08T14:51:37;2.40;;;2.07;;
15929;SDS011;8064;51.142;4.780;2023-02-08T14:57:16;3.50;;;2.17;;
15929;SDS011;8064;51.142;4.780;2023-02-08T14:59:49;3.57;;;2.50;;
15929;SDS011;8064;51.142;4.780;2023-02-08T15:02:19;3.10;;;2.10;;
15929;SDS011;8064;51.142;4.780;2023-02-08T15:04:50;3.80;;;2.47;;
15929;SDS011;8064;51.142;4.780;2023-02-08T15:07:20;3.70;;;2.50;;
15929;SDS011;8064;51.142;4.780;2023-02-08T15:09:52;5.37;;;2.60;;
15929;SDS011;8064;51.142;4.780;2023-02-08T15:12:31;3.23;;;2.20;;
15929;SDS011;8064;51.142;4.780;2023-02-08T15:15:00;2.67;;;2.27;;
15929;SDS011;8064;51.142;4.780;2023-02-08T15:17:31;4.40;;;2.10;;
15929;SDS011;8064;51.142;4.780;2023-02-08T15:20:01;4.33;;;2.60;;
15929;SDS011;8064;51.142;4.780;2023-02-08T15:22:31;5.23;;;2.30;;
15929;SDS011;8064;51.142;4.780;2023-02-08T15:25:01;3.47;;;2.23;;
15929;SDS011;8064;51.142;4.780;2023-02-08T15:27:44;4.50;;;2.50;;
15929;SDS011;8064;51.142;4.780;2023-02-08T15:30:24;2.93;;;2.00;;
15929;SDS011;8064;51.142;4.780;2023-02-08T15:32:51;3.77;;;2.20;;
15929;SDS011;8064;51.142;4.780;2023-02-08T15:35:18;5.87;;;2.73;;
15929;SDS011;8064;51.142;4.780;2023-02-08T15:37:44;3.47;;;2.50;;
15929;SDS011;8064;51.142;4.780;2023-02-08T15:40:24;5.83;;;2.90;;
15929;SDS011;8064;51.142;4.780;2023-02-08T15:42:53;4.57;;;2.87;;
15929;SDS011;8064;51.142;4.780;2023-02-08T15:45:20;3.30;;;2.70;;
15929;SDS011;8064;51.142;4.780;2023-02-08T15:47:47;3.27;;;2.20;;
15929;SDS011;8064;51.142;4.780;2023-02-08T15:50:16;4.30;;;2.77;;
15929;SDS011;8064;51.142;4.780;2023-02-08T15:52:44;4.93;;;2.77;;
15929;SDS011;8064;51.142;4.780;2023-02-08T15:55:14;3.10;;;2.70;;
15929;SDS011;8064;51.142;4.780;2023-02-08T15:57:45;5.00;;;2.80;;
15929;SDS011;8064;51.142;4.780;2023-02-08T16:00:23;6.00;;;2.77;;
15929;SDS011;8064;51.142;4.780;2023-02-08T16:02:53;4.43;;;2.80;;
15929;SDS011;8064;51.142;4.780;2023-02-08T16:05:25;7.60;;;3.00;;
15929;SDS011;8064;51.142;4.780;2023-02-08T16:07:53;5.43;;;2.60;;
15929;SDS011;8064;51.142;4.780;2023-02-08T16:15:47;3.53;;;2.23;;
15929;SDS011;8064;51.142;4.780;2023-02-08T16:20:55;5.03;;;2.83;;
15929;SDS011;8064;51.142;4.780;2023-02-08T16:23:25;3.83;;;2.70;;
15929;SDS011;8064;51.142;4.780;2023-02-08T16:25:52;3.07;;;2.70;;
15929;SDS011;8064;51.142;4.780;2023-02-08T16:31:03;5.37;;;3.13;;
15929;SDS011;8064;51.142;4.780;2023-02-08T16:33:30;3.63;;;2.67;;
15929;SDS011;8064;51.142;4.780;2023-02-08T16:35:57;5.37;;;2.80;;
15929;SDS011;8064;51.142;4.780;2023-02-08T16:38:36;6.10;;;3.20;;
15929;SDS011;8064;51.142;4.780;2023-02-08T16:41:02;5.73;;;2.90;;
15929;SDS011;8064;51.142;4.780;2023-02-08T16:43:50;5.20;;;3.03;;
15929;SDS011;8064;51.142;4.780;2023-02-08T16:46:51;8.33;;;3.20;;
15929;SDS011;8064;51.142;4.780;2023-02-08T16:49:17;4.80;;;3.13;;
15929;SDS011;8064;51.142;4.780;2023-02-08T16:51:43;5.70;;;3.00;;
15929;SDS011;8064;51.142;4.780;2023-02-08T16:54:11;8.03;;;3.10;;
15929;SDS011;8064;51.142;4.780;2023-02-08T16:56:40;4.67;;;2.80;;
15929;SDS011;8064;51.142;4.780;2023-02-08T16:59:09;3.07;;;2.57;;
15929;SDS011;8064;51.142;4.780;2023-02-08T17:01:36;3.30;;;2.70;;
15929;SDS011;8064;51.142;4.780;2023-02-08T17:04:02;5.00;;;2.80;;
15929;SDS011;8064;51.142;4.780;2023-02-08T17:06:30;5.73;;;3.03;;
15929;SDS011;8064;51.142;4.780;2023-02-08T17:08:59;5.20;;;2.87;;
15929;SDS011;8064;51.142;4.780;2023-02-08T17:11:25;5.63;;;2.93;;
15929;SDS011;8064;51.142;4.780;2023-02-08T17:13:51;8.33;;;3.63;;
15929;SDS011;8064;51.142;4.780;2023-02-08T17:16:19;14.63;;;3.33;;
15929;SDS011;8064;51.142;4.780;2023-02-08T17:18:47;8.47;;;3.73;;
15929;SDS011;8064;51.142;4.780;2023-02-08T17:21:14;6.17;;;3.20;;
15929;SDS011;8064;51.142;4.780;2023-02-08T17:23:40;8.33;;;4.27;;
15929;SDS011;8064;51.142;4.780;2023-02-08T17:28:51;9.47;;;3.90;;
15929;SDS011;8064;51.142;4.780;2023-02-08T17:31:18;8.30;;;3.83;;
15929;SDS011;8064;51.142;4.780;2023-02-08T17:33:44;7.77;;;3.93;;
15929;SDS011;8064;51.142;4.780;2023-02-08T17:36:11;6.27;;;4.27;;
15929;SDS011;8064;51.142;4.780;2023-02-08T17:38:38;8.13;;;3.53;;
15929;SDS011;8064;51.142;4.780;2023-02-08T17:41:06;8.57;;;4.00;;
15929;SDS011;8064;51.142;4.780;2023-02-08T17:43:36;9.23;;;4.30;;
15929;SDS011;8064;51.142;4.780;2023-02-08T17:48:43;11.13;;;4.50;;
15929;SDS011;8064;51.142;4.780;2023-02-08T17:51:11;8.10;;;4.60;;
15929;SDS011;8064;51.142;4.780;2023-02-08T17:53:39;10.73;;;4.83;;
15929;SDS011;8064;51.142;4.780;2023-02-08T17:56:09;8.07;;;5.43;;
15929;SDS011;8064;51.142;4.780;2023-02-08T17:58:37;9.63;;;5.47;;
15929;SDS011;8064;51.142;4.780;2023-02-08T18:01:05;7.80;;;5.07;;
15929;SDS011;8064;51.142;4.780;2023-02-08T18:03:32;13.17;;;6.03;;
15929;SDS011;8064;51.142;4.780;2023-02-08T18:05:58;9.63;;;5.60;;
15929;SDS011;8064;51.142;4.780;2023-02-08T18:08:24;7.17;;;4.90;;
15929;SDS011;8064;51.142;4.780;2023-02-08T18:10:51;9.40;;;5.20;;
15929;SDS011;8064;51.142;4.780;2023-02-08T18:13:17;8.83;;;5.07;;
15929;SDS011;8064;51.142;4.780;2023-02-08T18:15:43;12.53;;;5.50;;
15929;SDS011;8064;51.142;4.780;2023-02-08T18:18:10;10.77;;;5.13;;
15929;SDS011;8064;51.142;4.780;2023-02-08T18:20:41;9.60;;;4.70;;